createdAt,value
2018-11-03T00:01:47.205Z,2.80
2018-11-03T00:04:15.350Z,2.57
2018-11-03T00:06:43.358Z,2.00
2018-11-03T00:09:11.622Z,2.57
2018-11-03T00:11:40.266Z,2.27
2018-11-03T00:14:09.329Z,3.13
2018-11-03T00:16:38.258Z,2.60
2018-11-03T00:19:07.022Z,2.80
2018-11-03T00:21:35.122Z,3.80
2018-11-03T00:24:03.626Z,2.30
2018-11-03T00:26:31.653Z,2.53
2018-11-03T00:29:00.126Z,2.10
2018-11-03T00:31:28.201Z,2.83
2018-11-03T00:33:59.344Z,2.53
2018-11-03T00:36:28.119Z,2.80
2018-11-03T00:38:56.701Z,3.00
2018-11-03T00:41:25.778Z,2.90
2018-11-03T00:43:55.296Z,2.20
2018-11-03T00:46:23.874Z,2.60
2018-11-03T00:48:52.479Z,3.00
2018-11-03T00:51:21.111Z,3.33
2018-11-03T00:53:50.092Z,2.60
2018-11-03T00:56:18.663Z,2.90
2018-11-03T00:58:47.188Z,2.43
2018-11-03T01:01:15.705Z,2.60
2018-11-03T01:03:43.733Z,3.63
2018-11-03T01:06:11.726Z,2.60
2018-11-03T01:08:39.728Z,2.87
2018-11-03T01:11:07.718Z,3.23
2018-11-03T01:13:35.768Z,3.10
2018-11-03T01:16:03.734Z,2.47
2018-11-03T01:18:31.778Z,3.17
2018-11-03T01:20:59.770Z,2.20
2018-11-03T01:23:27.822Z,2.70
2018-11-03T01:25:55.783Z,3.03
2018-11-03T01:28:23.871Z,2.70
2018-11-03T01:30:51.871Z,2.90
2018-11-03T01:33:19.881Z,3.10
2018-11-03T01:35:47.881Z,2.90
2018-11-03T01:38:15.897Z,2.80
2018-11-03T01:40:43.898Z,2.47
2018-11-03T01:43:11.893Z,2.80
2018-11-03T01:45:39.955Z,2.70
2018-11-03T01:48:08.966Z,2.50
2018-11-03T01:50:36.978Z,3.07
2018-11-03T01:53:05.110Z,3.03
2018-11-03T01:55:34.157Z,2.37
2018-11-03T01:58:02.155Z,2.70
2018-11-03T02:00:31.169Z,2.20
2018-11-03T02:02:59.190Z,3.30
2018-11-03T02:05:27.243Z,3.13
2018-11-03T02:07:55.240Z,2.20
2018-11-03T02:10:23.278Z,2.50
2018-11-03T02:12:51.280Z,3.53
2018-11-03T02:15:19.444Z,3.17
2018-11-03T02:17:47.448Z,2.57
2018-11-03T02:20:15.470Z,2.90
2018-11-03T02:22:43.478Z,2.70
2018-11-03T02:25:11.506Z,2.67
2018-11-03T02:27:39.581Z,2.93
2018-11-03T02:30:07.897Z,2.63
2018-11-03T02:32:35.878Z,2.47
2018-11-03T02:35:03.977Z,3.10
2018-11-03T02:37:31.961Z,3.33
2018-11-03T02:39:59.963Z,3.00
2018-11-03T02:42:27.975Z,2.77
2018-11-03T02:44:55.964Z,2.90
2018-11-03T02:47:24.023Z,3.03
2018-11-03T02:49:51.969Z,2.30
2018-11-03T02:52:20.005Z,3.20
2018-11-03T02:54:48.009Z,2.77
2018-11-03T02:57:16.034Z,2.73
2018-11-03T02:59:44.044Z,2.87
2018-11-03T03:02:12.072Z,3.23
2018-11-03T03:04:40.073Z,3.67
2018-11-03T03:07:09.113Z,2.57
2018-11-03T03:09:37.132Z,2.60
2018-11-03T03:12:05.304Z,2.60
2018-11-03T03:14:33.310Z,3.90
2018-11-03T03:17:02.356Z,3.57
2018-11-03T03:19:30.339Z,2.80
2018-11-03T03:21:58.332Z,2.40
2018-11-03T03:24:26.376Z,3.20
2018-11-03T03:26:54.361Z,2.70
2018-11-03T03:29:22.396Z,3.07
2018-11-03T03:31:50.448Z,2.93
2018-11-03T03:34:18.389Z,2.87
2018-11-03T03:36:46.381Z,1.90
2018-11-03T03:39:14.405Z,2.70
2018-11-03T03:41:42.405Z,2.93
2018-11-03T03:44:10.661Z,2.83
2018-11-03T03:46:38.641Z,4.00
2018-11-03T03:49:06.663Z,4.03
2018-11-03T03:51:34.666Z,3.77
2018-11-03T03:54:02.703Z,3.13
2018-11-03T03:56:30.720Z,3.70
2018-11-03T03:58:58.718Z,3.40
2018-11-03T04:01:27.759Z,2.97
2018-11-03T04:03:55.755Z,2.83
2018-11-03T04:06:23.778Z,3.33
2018-11-03T04:08:51.765Z,2.83
2018-11-03T04:11:19.998Z,2.83
2018-11-03T04:13:48.002Z,4.00
2018-11-03T04:16:16.050Z,3.33
2018-11-03T04:18:44.084Z,3.47
2018-11-03T04:21:16.629Z,3.20
2018-11-03T04:23:44.706Z,4.73
2018-11-03T04:26:12.696Z,2.63
2018-11-03T04:28:40.729Z,3.10
2018-11-03T04:31:08.725Z,3.33
2018-11-03T04:33:36.754Z,3.00
2018-11-03T04:36:04.765Z,3.00
2018-11-03T04:38:33.862Z,2.40
2018-11-03T04:41:01.862Z,2.90
2018-11-03T04:43:29.874Z,3.93
2018-11-03T04:45:57.853Z,2.27
2018-11-03T04:48:25.874Z,2.07
2018-11-03T04:50:53.905Z,2.47
2018-11-03T04:53:21.901Z,2.23
2018-11-03T04:55:49.918Z,2.70
2018-11-03T04:58:17.922Z,3.17
2018-11-03T05:00:45.933Z,2.67
2018-11-03T05:03:13.918Z,3.60
2018-11-03T05:05:41.914Z,2.97
2018-11-03T05:08:10.937Z,2.27
2018-11-03T05:10:38.925Z,2.33
2018-11-03T05:13:06.916Z,3.03
2018-11-03T05:15:34.946Z,3.40
2018-11-03T05:18:03.587Z,2.53
2018-11-03T05:20:32.622Z,2.33
2018-11-03T05:23:01.650Z,2.67
2018-11-03T05:25:30.663Z,3.50
2018-11-03T05:27:58.669Z,2.33
2018-11-03T05:30:26.713Z,2.13
2018-11-03T05:32:54.709Z,2.20
2018-11-03T05:35:22.721Z,2.80
2018-11-03T05:37:50.717Z,3.23
2018-11-03T05:40:18.745Z,2.47
2018-11-03T05:42:46.738Z,2.63
2018-11-03T05:45:14.768Z,2.53
2018-11-03T05:47:42.761Z,2.43
2018-11-03T05:50:11.161Z,2.27
2018-11-03T05:52:39.394Z,2.97
2018-11-03T05:55:07.849Z,2.70
2018-11-03T05:57:35.863Z,2.77
2018-11-03T06:00:04.162Z,2.23
2018-11-03T06:02:32.160Z,3.10
2018-11-03T06:05:00.192Z,2.80
2018-11-03T06:07:28.254Z,3.33
2018-11-03T06:09:56.222Z,2.70
2018-11-03T06:12:24.266Z,3.17
2018-11-03T06:14:52.269Z,2.47
2018-11-03T06:17:20.266Z,3.80
2018-11-03T06:19:48.293Z,2.93
2018-11-03T06:22:16.294Z,2.73
2018-11-03T06:24:45.344Z,2.87
2018-11-03T06:27:13.337Z,2.70
2018-11-03T06:29:41.365Z,3.23
2018-11-03T06:32:09.387Z,2.57
2018-11-03T06:34:37.417Z,2.90
2018-11-03T06:37:05.566Z,2.00
2018-11-03T06:39:33.593Z,2.20
2018-11-03T06:42:01.593Z,2.87
2018-11-03T06:44:30.593Z,2.20
2018-11-03T06:46:58.641Z,2.50
2018-11-03T06:49:26.651Z,2.50
2018-11-03T06:51:54.686Z,2.50
2018-11-03T06:54:22.689Z,2.70
2018-11-03T06:56:50.702Z,2.17
2018-11-03T06:59:18.960Z,2.30
2018-11-03T07:01:47.061Z,2.53
2018-11-03T07:04:15.782Z,2.63
2018-11-03T07:06:43.813Z,2.93
2018-11-03T07:09:12.684Z,2.20
2018-11-03T07:11:41.800Z,2.87
2018-11-03T07:14:10.301Z,2.33
2018-11-03T07:16:38.320Z,2.03
2018-11-03T07:19:06.442Z,2.10
2018-11-03T07:21:34.691Z,2.53
2018-11-03T07:24:02.646Z,1.90
2018-11-03T07:26:30.636Z,2.97
2018-11-03T07:28:58.673Z,2.37
2018-11-03T07:31:26.669Z,2.10
2018-11-03T07:33:55.722Z,2.67
2018-11-03T07:36:23.709Z,3.03
2018-11-03T07:38:51.712Z,3.67
2018-11-03T07:41:19.729Z,2.40
2018-11-03T07:43:47.693Z,2.23
2018-11-03T07:46:15.685Z,2.73
2018-11-03T07:48:43.852Z,3.00
2018-11-03T07:51:11.754Z,3.20
2018-11-03T07:53:39.817Z,2.63
2018-11-03T07:56:08.214Z,2.07
2018-11-03T07:58:36.242Z,2.87
2018-11-03T08:01:04.745Z,3.10
2018-11-03T08:03:32.804Z,2.20
2018-11-03T08:06:00.812Z,3.30
2018-11-03T08:08:28.854Z,2.47
2018-11-03T08:10:56.910Z,3.13
2018-11-03T08:13:24.951Z,2.50
2018-11-03T08:15:52.998Z,2.73
2018-11-03T08:18:20.937Z,3.23
2018-11-03T08:20:48.944Z,3.07
2018-11-03T08:23:16.974Z,2.50
2018-11-03T08:25:44.949Z,2.80
2018-11-03T08:28:12.981Z,2.90
2018-11-03T08:30:41.380Z,3.40
2018-11-03T08:33:09.430Z,2.47
2018-11-03T08:35:37.491Z,3.10
2018-11-03T08:38:05.533Z,2.73
2018-11-03T08:40:33.626Z,3.77
2018-11-03T08:43:01.607Z,1.90
2018-11-03T08:45:29.588Z,2.57
2018-11-03T08:47:57.631Z,3.10
2018-11-03T08:50:25.607Z,2.67
2018-11-03T08:52:53.929Z,3.07
2018-11-03T08:55:21.976Z,1.73
2018-11-03T08:57:49.984Z,2.30
2018-11-03T09:00:18.066Z,2.63
2018-11-03T09:02:46.033Z,2.60
2018-11-03T09:05:15.041Z,3.13
2018-11-03T09:07:43.020Z,2.30
2018-11-03T09:10:12.496Z,1.60
2018-11-03T09:12:40.528Z,2.37
2018-11-03T09:15:10.300Z,1.60
2018-11-03T09:17:39.035Z,2.63
2018-11-03T09:20:07.343Z,2.20
2018-11-03T09:22:35.959Z,2.47
2018-11-03T09:25:03.925Z,2.80
2018-11-03T09:27:31.929Z,2.67
2018-11-03T09:29:59.941Z,2.80
2018-11-03T09:32:28.028Z,3.27
2018-11-03T09:34:55.973Z,3.60
2018-11-03T09:37:23.986Z,2.03
2018-11-03T09:39:52.006Z,1.80
2018-11-03T09:42:20.002Z,2.33
2018-11-03T09:44:48.017Z,2.27
2018-11-03T09:47:16.012Z,2.63
2018-11-03T09:49:44.022Z,2.30
2018-11-03T09:52:12.017Z,2.67
2018-11-03T09:54:40.053Z,2.20
2018-11-03T09:57:08.090Z,3.53
2018-11-03T09:59:36.110Z,2.53
2018-11-03T10:02:04.125Z,2.23
2018-11-03T10:04:32.117Z,2.87
2018-11-03T10:07:00.163Z,2.50
2018-11-03T10:09:28.196Z,3.30
2018-11-03T10:11:56.223Z,2.40
2018-11-03T10:14:24.229Z,3.23
2018-11-03T10:16:53.037Z,2.90
2018-11-03T10:19:22.077Z,1.80
2018-11-03T10:21:50.074Z,2.80
2018-11-03T10:24:18.169Z,2.60
2018-11-03T10:26:46.218Z,2.43
2018-11-03T10:29:14.257Z,2.57
2018-11-03T10:31:42.293Z,2.13
2018-11-03T10:34:10.670Z,2.70
2018-11-03T10:36:38.710Z,2.93
2018-11-03T10:39:07.783Z,2.73
2018-11-03T10:41:35.866Z,2.83
2018-11-03T10:44:03.966Z,3.20
2018-11-03T10:46:32.039Z,2.80
2018-11-03T10:49:00.173Z,3.60
2018-11-03T10:51:28.189Z,2.80
2018-11-03T10:53:56.249Z,2.20
2018-11-03T10:56:24.278Z,2.10
2018-11-03T10:58:52.369Z,1.73
2018-11-03T11:01:25.855Z,2.17
2018-11-03T11:03:59.115Z,2.60
2018-11-03T11:06:32.480Z,8.90
2018-11-03T11:09:06.000Z,21.00
2018-11-03T11:11:39.266Z,23.77
2018-11-03T11:14:07.349Z,24.93
2018-11-03T11:16:35.331Z,26.00
2018-11-03T11:19:03.341Z,25.50
2018-11-03T11:21:31.419Z,28.13
2018-11-03T11:23:59.509Z,26.67
2018-11-03T11:26:27.426Z,27.57
2018-11-03T11:28:55.480Z,28.10
2018-11-03T11:31:23.497Z,27.20
2018-11-03T11:33:51.491Z,27.07
2018-11-03T11:36:19.496Z,22.80
2018-11-03T11:38:47.541Z,23.80
2018-11-03T11:41:15.604Z,24.50
2018-11-03T11:43:43.587Z,20.90
2018-11-03T11:46:11.621Z,21.60
2018-11-03T11:48:39.621Z,22.70
2018-11-03T11:51:07.634Z,18.80
2018-11-03T11:53:35.657Z,21.07
2018-11-03T11:56:03.665Z,17.90
2018-11-03T11:58:31.603Z,17.80
2018-11-03T12:00:59.625Z,16.50
2018-11-03T12:03:28.664Z,19.20
2018-11-03T12:05:56.661Z,16.73
2018-11-03T12:08:25.726Z,16.27
2018-11-03T12:10:53.745Z,14.80
2018-11-03T12:13:21.821Z,13.90
2018-11-03T12:15:49.845Z,15.53
2018-11-03T12:18:20.491Z,15.17
2018-11-03T12:20:48.501Z,12.57
2018-11-03T12:23:16.518Z,14.87
2018-11-03T12:25:44.693Z,14.60
2018-11-03T12:28:13.832Z,12.87
2018-11-03T12:30:41.874Z,14.10
2018-11-03T12:33:10.881Z,11.73
2018-11-03T12:35:38.907Z,12.30
2018-11-03T12:38:07.921Z,12.33
2018-11-03T12:40:36.009Z,10.20
2018-11-03T12:43:03.949Z,13.27
2018-11-03T12:45:31.970Z,12.83
2018-11-03T12:47:59.997Z,9.20
2018-11-03T12:50:28.115Z,10.50
2018-11-03T12:52:57.189Z,9.87
2018-11-03T12:55:25.320Z,11.10
2018-11-03T12:57:53.283Z,9.50
2018-11-03T13:00:21.334Z,11.73
2018-11-03T13:02:49.357Z,9.80
2018-11-03T13:05:17.457Z,9.07
2018-11-03T13:07:45.892Z,9.00
2018-11-03T13:10:13.899Z,10.73
2018-11-03T13:12:42.558Z,8.10
2018-11-03T13:15:12.092Z,10.03
2018-11-03T13:17:40.314Z,7.70
2018-11-03T13:20:09.740Z,7.57
2018-11-03T13:22:37.869Z,8.40
2018-11-03T13:25:06.187Z,8.37
2018-11-03T13:27:34.249Z,7.47
2018-11-03T13:30:02.268Z,7.57
2018-11-03T13:32:31.297Z,8.30
2018-11-03T13:34:59.480Z,7.03
2018-11-03T13:37:27.326Z,6.90
2018-11-03T13:39:55.343Z,6.27
2018-11-03T13:42:23.365Z,6.53
2018-11-03T13:44:51.405Z,6.70
2018-11-03T13:47:19.470Z,7.17
2018-11-03T13:49:47.438Z,6.57
2018-11-03T13:52:15.441Z,6.53
2018-11-03T13:54:44.466Z,6.87
2018-11-03T13:57:12.578Z,7.00
2018-11-03T13:59:40.486Z,6.73
2018-11-03T14:02:09.505Z,6.00
2018-11-03T14:04:37.506Z,6.50
2018-11-03T14:07:05.545Z,6.47
2018-11-03T14:09:33.565Z,6.00
2018-11-03T14:12:01.566Z,7.67
2018-11-03T14:14:32.400Z,6.07
2018-11-03T14:17:01.467Z,5.73
2018-11-03T14:19:29.436Z,7.73
2018-11-03T14:21:57.462Z,5.87
2018-11-03T14:24:25.436Z,4.97
2018-11-03T14:26:53.437Z,7.53
2018-11-03T14:29:21.420Z,5.90
2018-11-03T14:31:49.422Z,6.00
2018-11-03T14:34:18.191Z,5.40
2018-11-03T14:36:46.266Z,5.53
2018-11-03T14:39:14.778Z,5.93
2018-11-03T14:41:43.295Z,5.63
2018-11-03T14:44:12.806Z,5.50
2018-11-03T14:46:41.418Z,5.40
2018-11-03T14:49:09.989Z,5.70
2018-11-03T14:51:38.552Z,5.20
2018-11-03T14:54:07.221Z,5.20
2018-11-03T14:56:35.955Z,5.10
2018-11-03T14:59:05.630Z,4.63
2018-11-03T15:01:34.219Z,6.67
2018-11-03T15:04:02.903Z,5.13
2018-11-03T15:06:31.327Z,5.00
2018-11-03T15:08:59.871Z,5.63
2018-11-03T15:11:28.542Z,5.73
2018-11-03T15:13:56.918Z,6.13
2018-11-03T15:16:25.334Z,6.33
2018-11-03T15:18:54.329Z,4.37
2018-11-03T15:21:23.930Z,4.90
2018-11-03T15:23:52.105Z,6.37
2018-11-03T15:26:20.797Z,4.77
2018-11-03T15:28:49.312Z,5.40
2018-11-03T15:31:17.716Z,5.80
2018-11-03T15:33:47.348Z,4.73
2018-11-03T15:36:16.859Z,5.00
2018-11-03T15:38:45.440Z,4.13
2018-11-03T15:41:13.878Z,4.90
2018-11-03T15:43:41.864Z,5.00
2018-11-03T15:46:09.889Z,5.00
2018-11-03T15:48:38.008Z,4.83
2018-11-03T15:51:07.042Z,5.13
2018-11-03T15:53:35.498Z,4.33
2018-11-03T15:56:04.589Z,4.17
2018-11-03T15:58:32.618Z,4.10
2018-11-03T16:01:00.649Z,5.30
2018-11-03T16:03:28.638Z,5.03
2018-11-03T16:05:56.625Z,4.87
2018-11-03T16:08:24.607Z,3.43
2018-11-03T16:10:52.602Z,5.33
2018-11-03T16:13:20.592Z,4.10
2018-11-03T16:15:48.559Z,5.30
2018-11-03T16:18:16.523Z,4.27
2018-11-03T16:20:44.541Z,3.93
2018-11-03T16:23:13.576Z,4.33
2018-11-03T16:25:41.633Z,3.67
2018-11-03T16:28:10.635Z,5.10
2018-11-03T16:30:38.585Z,3.37
2018-11-03T16:33:06.610Z,4.20
2018-11-03T16:35:34.709Z,3.90
2018-11-03T16:38:02.637Z,5.87
2018-11-03T16:40:30.626Z,4.40
2018-11-03T16:42:58.632Z,3.83
2018-11-03T16:45:26.639Z,4.87
2018-11-03T16:47:54.654Z,5.27
2018-11-03T16:52:57.101Z,4.80
2018-11-03T16:55:25.151Z,5.47
2018-11-03T16:57:53.105Z,4.60
2018-11-03T17:00:21.089Z,4.63
2018-11-03T17:02:49.109Z,4.50
2018-11-03T17:05:17.101Z,4.77
2018-11-03T17:07:45.116Z,4.50
2018-11-03T17:10:15.065Z,5.27
2018-11-03T17:12:44.387Z,4.60
2018-11-03T17:15:12.882Z,3.90
2018-11-03T17:17:40.949Z,4.40
2018-11-03T17:20:09.407Z,5.70
2018-11-03T17:22:37.421Z,3.30
2018-11-03T17:25:06.923Z,4.20
2018-11-03T17:27:34.885Z,3.60
2018-11-03T17:30:02.874Z,4.90
2018-11-03T17:32:30.874Z,4.80
2018-11-03T17:34:59.114Z,3.87
2018-11-03T17:37:27.153Z,3.63
2018-11-03T17:39:55.161Z,4.83
2018-11-03T17:42:23.160Z,3.87
2018-11-03T17:44:51.173Z,5.00
2018-11-03T17:47:19.257Z,4.20
2018-11-03T17:49:47.258Z,4.17
2018-11-03T17:52:15.257Z,4.20
2018-11-03T17:54:43.328Z,3.50
2018-11-03T17:57:11.265Z,3.03
2018-11-03T17:59:39.290Z,5.00
2018-11-03T18:02:07.293Z,4.20
2018-11-03T18:04:35.370Z,4.33
2018-11-03T18:07:03.356Z,4.13
2018-11-03T18:09:31.378Z,3.33
2018-11-03T18:11:59.360Z,4.30
2018-11-03T18:14:27.388Z,3.73
2018-11-03T18:16:56.390Z,3.90
2018-11-03T18:19:24.413Z,5.30
2018-11-03T18:21:52.418Z,4.43
2018-11-03T18:24:20.437Z,3.90
2018-11-03T18:26:49.448Z,3.80
2018-11-03T18:29:17.464Z,4.07
2018-11-03T18:31:45.447Z,3.70
2018-11-03T18:34:13.654Z,4.07
2018-11-03T18:36:41.642Z,3.83
2018-11-03T18:39:10.575Z,4.07
2018-11-03T18:41:38.800Z,3.73
2018-11-03T18:44:13.317Z,4.30
2018-11-03T18:46:41.401Z,4.40
2018-11-03T18:49:09.329Z,3.23
2018-11-03T18:51:37.336Z,3.63
2018-11-03T18:54:05.316Z,3.40
2018-11-03T18:56:33.321Z,3.97
2018-11-03T18:59:01.301Z,3.90
2018-11-03T19:01:29.316Z,3.50
2018-11-03T19:03:57.302Z,4.00
2018-11-03T19:06:25.341Z,3.90
2018-11-03T19:08:53.337Z,3.10
2018-11-03T19:11:21.361Z,3.53
2018-11-03T19:13:55.757Z,3.37
2018-11-03T19:16:23.769Z,2.93
2018-11-03T19:18:51.772Z,3.30
2018-11-03T19:21:19.789Z,3.90
2018-11-03T19:23:47.890Z,4.03
2018-11-03T19:26:15.801Z,4.07
2018-11-03T19:28:43.896Z,3.60
2018-11-03T19:31:11.929Z,4.93
2018-11-03T19:33:39.999Z,3.77
2018-11-03T19:36:08.146Z,4.10
2018-11-03T19:38:36.156Z,4.80
2018-11-03T19:41:04.227Z,4.80
2018-11-03T19:43:32.225Z,3.90
2018-11-03T19:46:00.242Z,2.80
2018-11-03T19:48:28.266Z,3.73
2018-11-03T19:50:56.287Z,4.17
2018-11-03T19:53:24.289Z,5.17
2018-11-03T19:55:52.394Z,3.70
2018-11-03T19:58:21.337Z,3.20
2018-11-03T20:00:49.359Z,3.43
2018-11-03T20:03:17.490Z,3.90
2018-11-03T20:05:45.373Z,3.63
2018-11-03T20:08:13.361Z,2.93
2018-11-03T20:10:41.381Z,3.30
2018-11-03T20:13:09.859Z,4.50
2018-11-03T20:15:38.870Z,5.00
2018-11-03T20:18:06.992Z,4.00
2018-11-03T20:20:34.909Z,3.03
2018-11-03T20:23:02.935Z,3.93
2018-11-03T20:25:30.961Z,4.70
2018-11-03T20:27:58.993Z,4.10
2018-11-03T20:30:28.006Z,4.50
2018-11-03T20:32:56.026Z,4.60
2018-11-03T20:35:24.041Z,5.50
2018-11-03T20:37:53.065Z,4.50
2018-11-03T20:40:21.343Z,4.60
2018-11-03T20:42:49.386Z,5.00
2018-11-03T20:45:17.385Z,5.40
2018-11-03T20:47:45.439Z,5.63
2018-11-03T20:50:14.241Z,4.70
2018-11-03T20:52:42.264Z,4.90
2018-11-03T20:55:11.056Z,5.10
2018-11-03T20:57:39.368Z,5.33
2018-11-03T21:00:08.210Z,4.40
2018-11-03T21:02:37.381Z,5.60
2018-11-03T21:05:06.716Z,5.90
2018-11-03T21:07:34.716Z,5.40
2018-11-03T21:10:02.740Z,5.90
2018-11-03T21:12:30.762Z,4.53
2018-11-03T21:14:58.743Z,5.40
2018-11-03T21:17:26.753Z,5.07
2018-11-03T21:19:54.769Z,5.70
2018-11-03T21:22:22.772Z,5.60
2018-11-03T21:24:50.866Z,4.53
2018-11-03T21:27:18.898Z,5.43
2018-11-03T21:29:46.909Z,5.10
2018-11-03T21:32:16.023Z,5.10
2018-11-03T21:34:43.929Z,5.70
2018-11-03T21:37:11.938Z,4.60
2018-11-03T21:39:39.961Z,5.07
2018-11-03T21:42:07.962Z,5.40
2018-11-03T21:44:35.973Z,5.00
2018-11-03T21:47:03.996Z,5.10
2018-11-03T21:49:32.997Z,4.77
2018-11-03T21:52:00.981Z,5.60
2018-11-03T21:54:29.568Z,5.07
2018-11-03T21:56:58.115Z,5.73
2018-11-03T21:59:26.586Z,4.73
2018-11-03T22:01:55.314Z,5.43
2018-11-03T22:04:23.854Z,4.60
2018-11-03T22:06:52.406Z,4.10
2018-11-03T22:09:21.033Z,3.97
2018-11-03T22:11:49.037Z,4.67
2018-11-03T22:14:17.057Z,5.40
2018-11-03T22:16:52.934Z,4.20
2018-11-03T22:19:20.942Z,4.47
2018-11-03T22:21:48.959Z,4.40
2018-11-03T22:24:16.945Z,3.90
2018-11-03T22:26:44.997Z,4.93
2018-11-03T22:29:12.966Z,3.83
2018-11-03T22:31:40.973Z,3.13
2018-11-03T22:34:09.122Z,3.53
2018-11-03T22:36:37.700Z,4.00
2018-11-03T22:39:07.527Z,4.37
2018-11-03T22:41:35.574Z,4.07
2018-11-03T22:44:04.055Z,4.87
2018-11-03T22:46:32.323Z,3.23
2018-11-03T22:49:01.141Z,4.67
2018-11-03T22:51:29.841Z,3.47
2018-11-03T22:53:58.409Z,4.10
2018-11-03T22:56:26.954Z,3.73
2018-11-03T22:58:55.333Z,4.80
2018-11-03T23:01:23.461Z,4.03
2018-11-03T23:03:51.861Z,3.77
2018-11-03T23:06:20.458Z,3.90
2018-11-03T23:08:48.567Z,3.50
2018-11-03T23:11:18.297Z,4.07
2018-11-03T23:13:46.382Z,4.50
2018-11-03T23:16:14.333Z,3.13
2018-11-03T23:18:42.378Z,4.40
2018-11-03T23:21:10.357Z,3.63
2018-11-03T23:23:38.397Z,3.20
2018-11-03T23:26:06.437Z,2.80
2018-11-03T23:28:34.535Z,3.50
2018-11-03T23:31:03.891Z,3.90
2018-11-03T23:33:32.161Z,3.90
2018-11-03T23:36:00.618Z,3.47
2018-11-03T23:38:29.183Z,3.60
2018-11-03T23:40:57.651Z,4.20
2018-11-03T23:43:26.119Z,3.47
2018-11-03T23:45:54.723Z,4.30
2018-11-03T23:48:23.343Z,3.37
2018-11-03T23:50:51.912Z,3.37
2018-11-03T23:53:21.611Z,3.00
2018-11-03T23:55:49.978Z,3.10
2018-11-03T23:58:18.562Z,3.40
